sensor_id;sensor_type;location;lat;lon;timestamp;P1;durP1;ratioP1;P2;durP2;ratioP2
18455;SDS011;9357;49.900;8.208;2022-10-31T00:00:28;18.03;;;12.40;;
18455;SDS011;9357;49.900;8.208;2022-10-31T00:02:01;17.07;;;11.73;;
18455;SDS011;9357;49.900;8.208;2022-10-31T00:03:35;16.53;;;13.33;;
18455;SDS011;9357;49.900;8.208;2022-10-31T00:05:07;17.77;;;13.97;;
18455;SDS011;9357;49.900;8.208;2022-10-31T00:06:40;18.80;;;14.43;;
18455;SDS011;9357;49.900;8.208;2022-10-31T00:08:13;17.53;;;14.30;;
18455;SDS011;9357;49.900;8.208;2022-10-31T00:09:46;17.63;;;13.17;;
18455;SDS011;9357;49.900;8.208;2022-10-31T00:11:19;19.97;;;13.67;;
18455;SDS011;9357;49.900;8.208;2022-10-31T00:12:51;17.63;;;13.40;;
18455;SDS011;9357;49.900;8.208;2022-10-31T00:14:24;20.50;;;13.97;;
18455;SDS011;9357;49.900;8.208;2022-10-31T00:15:56;16.80;;;14.00;;
18455;SDS011;9357;49.900;8.208;2022-10-31T00:17:28;15.50;;;12.77;;
18455;SDS011;9357;49.900;8.208;2022-10-31T00:19:03;16.57;;;12.87;;
18455;SDS011;9357;49.900;8.208;2022-10-31T00:20:37;14.47;;;12.20;;
18455;SDS011;9357;49.900;8.208;2022-10-31T00:22:10;14.17;;;11.90;;
18455;SDS011;9357;49.900;8.208;2022-10-31T00:23:43;14.90;;;11.57;;
18455;SDS011;9357;49.900;8.208;2022-10-31T00:25:16;17.30;;;12.40;;
18455;SDS011;9357;49.900;8.208;2022-10-31T00:26:49;14.83;;;11.90;;
18455;SDS011;9357;49.900;8.208;2022-10-31T00:28:21;17.70;;;12.50;;
18455;SDS011;9357;49.900;8.208;2022-10-31T00:29:54;16.20;;;12.00;;
18455;SDS011;9357;49.900;8.208;2022-10-31T00:31:27;15.60;;;12.10;;
18455;SDS011;9357;49.900;8.208;2022-10-31T00:33:00;15.73;;;11.10;;
18455;SDS011;9357;49.900;8.208;2022-10-31T00:34:35;16.67;;;11.27;;
18455;SDS011;9357;49.900;8.208;2022-10-31T00:36:10;13.53;;;10.77;;
18455;SDS011;9357;49.900;8.208;2022-10-31T00:37:44;16.00;;;12.10;;
18455;SDS011;9357;49.900;8.208;2022-10-31T00:39:17;14.90;;;11.27;;
18455;SDS011;9357;49.900;8.208;2022-10-31T00:40:50;13.47;;;10.70;;
18455;SDS011;9357;49.900;8.208;2022-10-31T00:42:23;17.43;;;12.53;;
18455;SDS011;9357;49.900;8.208;2022-10-31T00:43:56;16.07;;;12.53;;
18455;SDS011;9357;49.900;8.208;2022-10-31T00:45:29;17.73;;;11.23;;
18455;SDS011;9357;49.900;8.208;2022-10-31T00:47:02;18.57;;;11.13;;
18455;SDS011;9357;49.900;8.208;2022-10-31T00:48:35;15.57;;;10.57;;
18455;SDS011;9357;49.900;8.208;2022-10-31T00:50:08;16.77;;;10.47;;
18455;SDS011;9357;49.900;8.208;2022-10-31T00:51:41;16.20;;;11.43;;
18455;SDS011;9357;49.900;8.208;2022-10-31T00:53:14;17.17;;;10.90;;
18455;SDS011;9357;49.900;8.208;2022-10-31T00:54:46;13.23;;;10.63;;
18455;SDS011;9357;49.900;8.208;2022-10-31T00:56:18;15.70;;;10.73;;
18455;SDS011;9357;49.900;8.208;2022-10-31T00:57:51;12.97;;;10.27;;
18455;SDS011;9357;49.900;8.208;2022-10-31T00:59:24;13.03;;;10.73;;
18455;SDS011;9357;49.900;8.208;2022-10-31T01:00:57;14.30;;;11.07;;
18455;SDS011;9357;49.900;8.208;2022-10-31T01:02:29;16.70;;;10.50;;
18455;SDS011;9357;49.900;8.208;2022-10-31T01:04:02;16.43;;;10.77;;
18455;SDS011;9357;49.900;8.208;2022-10-31T01:05:36;14.00;;;10.70;;
18455;SDS011;9357;49.900;8.208;2022-10-31T01:07:08;13.33;;;9.67;;
18455;SDS011;9357;49.900;8.208;2022-10-31T01:08:42;16.07;;;10.23;;
18455;SDS011;9357;49.900;8.208;2022-10-31T01:10:15;12.23;;;10.03;;
18455;SDS011;9357;49.900;8.208;2022-10-31T01:11:47;13.87;;;9.57;;
18455;SDS011;9357;49.900;8.208;2022-10-31T01:13:19;12.67;;;9.60;;
18455;SDS011;9357;49.900;8.208;2022-10-31T01:14:56;16.13;;;9.70;;
18455;SDS011;9357;49.900;8.208;2022-10-31T01:16:29;16.67;;;9.43;;
18455;SDS011;9357;49.900;8.208;2022-10-31T01:18:02;17.27;;;9.60;;
18455;SDS011;9357;49.900;8.208;2022-10-31T01:19:34;13.77;;;9.07;;
18455;SDS011;9357;49.900;8.208;2022-10-31T01:21:09;13.90;;;9.60;;
18455;SDS011;9357;49.900;8.208;2022-10-31T01:22:43;13.73;;;9.33;;
18455;SDS011;9357;49.900;8.208;2022-10-31T01:24:16;12.03;;;9.00;;
18455;SDS011;9357;49.900;8.208;2022-10-31T01:25:49;11.47;;;8.73;;
18455;SDS011;9357;49.900;8.208;2022-10-31T01:27:20;11.00;;;8.30;;
18455;SDS011;9357;49.900;8.208;2022-10-31T01:28:54;14.03;;;8.77;;
18455;SDS011;9357;49.900;8.208;2022-10-31T01:30:27;11.63;;;8.40;;
18455;SDS011;9357;49.900;8.208;2022-10-31T01:31:59;14.40;;;8.63;;
18455;SDS011;9357;49.900;8.208;2022-10-31T01:33:32;11.27;;;7.63;;
18455;SDS011;9357;49.900;8.208;2022-10-31T01:35:05;11.10;;;7.97;;
18455;SDS011;9357;49.900;8.208;2022-10-31T01:36:39;10.20;;;8.00;;
18455;SDS011;9357;49.900;8.208;2022-10-31T01:38:12;11.53;;;8.27;;
18455;SDS011;9357;49.900;8.208;2022-10-31T01:39:44;11.57;;;8.27;;
18455;SDS011;9357;49.900;8.208;2022-10-31T01:41:18;11.97;;;9.10;;
18455;SDS011;9357;49.900;8.208;2022-10-31T01:42:52;13.67;;;8.57;;
18455;SDS011;9357;49.900;8.208;2022-10-31T01:46:24;14.53;;;8.77;;
18455;SDS011;9357;49.900;8.208;2022-10-31T01:47:59;11.10;;;8.37;;
18455;SDS011;9357;49.900;8.208;2022-10-31T01:49:33;13.07;;;8.47;;
18455;SDS011;9357;49.900;8.208;2022-10-31T01:51:10;10.70;;;8.97;;
18455;SDS011;9357;49.900;8.208;2022-10-31T01:52:45;10.33;;;7.80;;
18455;SDS011;9357;49.900;8.208;2022-10-31T01:54:22;10.73;;;7.87;;
18455;SDS011;9357;49.900;8.208;2022-10-31T01:55:58;12.83;;;8.67;;
18455;SDS011;9357;49.900;8.208;2022-10-31T01:57:34;9.47;;;7.93;;
18455;SDS011;9357;49.900;8.208;2022-10-31T01:59:09;12.53;;;8.20;;
18455;SDS011;9357;49.900;8.208;2022-10-31T02:00:45;11.27;;;8.03;;
18455;SDS011;9357;49.900;8.208;2022-10-31T02:02:21;11.97;;;8.03;;
18455;SDS011;9357;49.900;8.208;2022-10-31T02:03:55;12.23;;;7.80;;
18455;SDS011;9357;49.900;8.208;2022-10-31T02:05:29;9.50;;;7.10;;
18455;SDS011;9357;49.900;8.208;2022-10-31T02:07:02;11.83;;;7.60;;
18455;SDS011;9357;49.900;8.208;2022-10-31T02:08:40;11.30;;;7.40;;
18455;SDS011;9357;49.900;8.208;2022-10-31T02:10:15;13.10;;;7.93;;
18455;SDS011;9357;49.900;8.208;2022-10-31T02:11:49;12.63;;;7.10;;
18455;SDS011;9357;49.900;8.208;2022-10-31T02:13:24;12.93;;;6.90;;
18455;SDS011;9357;49.900;8.208;2022-10-31T02:14:57;9.87;;;6.73;;
18455;SDS011;9357;49.900;8.208;2022-10-31T02:16:30;12.17;;;7.73;;
18455;SDS011;9357;49.900;8.208;2022-10-31T02:18:03;10.03;;;7.10;;
18455;SDS011;9357;49.900;8.208;2022-10-31T02:19:39;8.93;;;6.80;;
18455;SDS011;9357;49.900;8.208;2022-10-31T02:21:16;16.60;;;6.97;;
18455;SDS011;9357;49.900;8.208;2022-10-31T02:23:11;9.67;;;7.00;;
18455;SDS011;9357;49.900;8.208;2022-10-31T02:24:56;10.73;;;6.77;;
18455;SDS011;9357;49.900;8.208;2022-10-31T02:28:55;9.77;;;6.63;;
18455;SDS011;9357;49.900;8.208;2022-10-31T02:30:50;8.00;;;6.30;;
18455;SDS011;9357;49.900;8.208;2022-10-31T02:32:38;8.70;;;6.63;;
18455;SDS011;9357;49.900;8.208;2022-10-31T02:34:23;10.63;;;7.00;;
18455;SDS011;9357;49.900;8.208;2022-10-31T02:36:05;12.57;;;7.17;;
18455;SDS011;9357;49.900;8.208;2022-10-31T02:37:45;12.27;;;6.40;;
18455;SDS011;9357;49.900;8.208;2022-10-31T02:39:28;10.97;;;6.60;;
18455;SDS011;9357;49.900;8.208;2022-10-31T02:41:09;11.27;;;6.70;;
18455;SDS011;9357;49.900;8.208;2022-10-31T02:42:49;12.40;;;6.50;;
18455;SDS011;9357;49.900;8.208;2022-10-31T02:44:33;10.40;;;6.57;;
18455;SDS011;9357;49.900;8.208;2022-10-31T02:46:13;13.03;;;7.33;;
18455;SDS011;9357;49.900;8.208;2022-10-31T02:47:50;10.73;;;6.60;;
18455;SDS011;9357;49.900;8.208;2022-10-31T02:49:26;11.37;;;6.23;;
18455;SDS011;9357;49.900;8.208;2022-10-31T02:51:04;11.70;;;6.17;;
18455;SDS011;9357;49.900;8.208;2022-10-31T02:52:37;13.37;;;6.03;;
18455;SDS011;9357;49.900;8.208;2022-10-31T02:54:16;9.20;;;5.80;;
18455;SDS011;9357;49.900;8.208;2022-10-31T02:55:51;10.17;;;5.63;;
18455;SDS011;9357;49.900;8.208;2022-10-31T02:57:30;10.40;;;5.60;;
18455;SDS011;9357;49.900;8.208;2022-10-31T02:59:07;8.80;;;5.53;;
18455;SDS011;9357;49.900;8.208;2022-10-31T03:00:41;12.97;;;5.73;;
18455;SDS011;9357;49.900;8.208;2022-10-31T03:02:29;10.40;;;5.20;;
18455;SDS011;9357;49.900;8.208;2022-10-31T03:04:16;9.50;;;5.23;;
18455;SDS011;9357;49.900;8.208;2022-10-31T03:06:22;8.97;;;5.37;;
18455;SDS011;9357;49.900;8.208;2022-10-31T03:08:02;5.83;;;4.77;;
18455;SDS011;9357;49.900;8.208;2022-10-31T03:09:41;10.77;;;5.60;;
18455;SDS011;9357;49.900;8.208;2022-10-31T03:11:20;7.73;;;5.37;;
18455;SDS011;9357;49.900;8.208;2022-10-31T03:13:01;10.77;;;5.30;;
18455;SDS011;9357;49.900;8.208;2022-10-31T03:14:40;17.37;;;5.30;;
18455;SDS011;9357;49.900;8.208;2022-10-31T03:16:16;8.20;;;5.50;;
18455;SDS011;9357;49.900;8.208;2022-10-31T03:17:55;8.53;;;5.40;;
18455;SDS011;9357;49.900;8.208;2022-10-31T03:19:31;8.33;;;5.40;;
18455;SDS011;9357;49.900;8.208;2022-10-31T03:21:07;7.03;;;5.13;;
18455;SDS011;9357;49.900;8.208;2022-10-31T03:22:44;10.83;;;5.53;;
18455;SDS011;9357;49.900;8.208;2022-10-31T03:24:18;9.87;;;5.03;;
18455;SDS011;9357;49.900;8.208;2022-10-31T03:25:52;7.67;;;4.93;;
18455;SDS011;9357;49.900;8.208;2022-10-31T03:27:26;8.63;;;5.10;;
18455;SDS011;9357;49.900;8.208;2022-10-31T03:29:03;8.93;;;5.23;;
18455;SDS011;9357;49.900;8.208;2022-10-31T03:30:38;9.63;;;5.57;;
18455;SDS011;9357;49.900;8.208;2022-10-31T03:32:15;9.50;;;5.33;;
18455;SDS011;9357;49.900;8.208;2022-10-31T03:33:50;7.80;;;5.40;;
18455;SDS011;9357;49.900;8.208;2022-10-31T03:35:24;9.03;;;5.80;;
18455;SDS011;9357;49.900;8.208;2022-10-31T03:36:59;9.13;;;5.90;;
18455;SDS011;9357;49.900;8.208;2022-10-31T03:38:35;10.63;;;6.17;;
18455;SDS011;9357;49.900;8.208;2022-10-31T03:40:09;9.20;;;5.93;;
18455;SDS011;9357;49.900;8.208;2022-10-31T03:41:46;11.37;;;5.80;;
18455;SDS011;9357;49.900;8.208;2022-10-31T03:43:24;9.30;;;6.50;;
18455;SDS011;9357;49.900;8.208;2022-10-31T03:45:01;12.30;;;6.30;;
18455;SDS011;9357;49.900;8.208;2022-10-31T03:46:38;8.03;;;6.23;;
18455;SDS011;9357;49.900;8.208;2022-10-31T03:48:10;8.40;;;5.70;;
18455;SDS011;9357;49.900;8.208;2022-10-31T03:49:46;10.93;;;6.27;;
18455;SDS011;9357;49.900;8.208;2022-10-31T03:51:20;11.40;;;6.17;;
18455;SDS011;9357;49.900;8.208;2022-10-31T03:52:59;12.37;;;6.50;;
18455;SDS011;9357;49.900;8.208;2022-10-31T03:54:36;10.93;;;7.07;;
18455;SDS011;9357;49.900;8.208;2022-10-31T03:56:15;11.23;;;6.03;;
18455;SDS011;9357;49.900;8.208;2022-10-31T03:57:55;7.60;;;6.03;;
18455;SDS011;9357;49.900;8.208;2022-10-31T03:59:34;9.53;;;6.30;;
18455;SDS011;9357;49.900;8.208;2022-10-31T04:01:11;10.80;;;6.40;;
18455;SDS011;9357;49.900;8.208;2022-10-31T04:02:49;13.90;;;6.90;;
18455;SDS011;9357;49.900;8.208;2022-10-31T04:04:26;15.10;;;6.90;;
18455;SDS011;9357;49.900;8.208;2022-10-31T04:06:01;11.07;;;7.10;;
18455;SDS011;9357;49.900;8.208;2022-10-31T04:07:38;9.90;;;6.67;;
18455;SDS011;9357;49.900;8.208;2022-10-31T04:09:14;10.43;;;6.97;;
18455;SDS011;9357;49.900;8.208;2022-10-31T04:10:48;12.77;;;7.20;;
18455;SDS011;9357;49.900;8.208;2022-10-31T04:12:23;8.97;;;6.63;;
18455;SDS011;9357;49.900;8.208;2022-10-31T04:13:58;12.27;;;6.63;;
18455;SDS011;9357;49.900;8.208;2022-10-31T04:15:33;12.20;;;6.40;;
18455;SDS011;9357;49.900;8.208;2022-10-31T04:17:09;9.83;;;6.97;;
18455;SDS011;9357;49.900;8.208;2022-10-31T04:18:45;13.03;;;7.20;;
18455;SDS011;9357;49.900;8.208;2022-10-31T04:20:17;10.10;;;7.40;;
18455;SDS011;9357;49.900;8.208;2022-10-31T04:21:51;10.97;;;7.23;;
18455;SDS011;9357;49.900;8.208;2022-10-31T04:23:25;17.27;;;9.50;;
18455;SDS011;9357;49.900;8.208;2022-10-31T04:24:58;10.73;;;7.90;;
18455;SDS011;9357;49.900;8.208;2022-10-31T04:26:31;11.47;;;7.33;;
18455;SDS011;9357;49.900;8.208;2022-10-31T04:28:04;10.33;;;6.77;;
18455;SDS011;9357;49.900;8.208;2022-10-31T04:29:36;11.40;;;6.73;;
18455;SDS011;9357;49.900;8.208;2022-10-31T04:31:09;10.53;;;7.73;;
18455;SDS011;9357;49.900;8.208;2022-10-31T04:32:43;10.67;;;6.73;;
18455;SDS011;9357;49.900;8.208;2022-10-31T04:34:16;10.70;;;6.73;;
18455;SDS011;9357;49.900;8.208;2022-10-31T04:35:49;10.60;;;6.50;;
18455;SDS011;9357;49.900;8.208;2022-10-31T04:37:23;8.23;;;6.20;;
18455;SDS011;9357;49.900;8.208;2022-10-31T04:38:56;9.07;;;6.60;;
18455;SDS011;9357;49.900;8.208;2022-10-31T04:40:28;9.00;;;6.73;;
18455;SDS011;9357;49.900;8.208;2022-10-31T04:42:01;10.83;;;7.27;;
18455;SDS011;9357;49.900;8.208;2022-10-31T04:43:33;14.13;;;6.57;;
18455;SDS011;9357;49.900;8.208;2022-10-31T04:45:06;10.43;;;7.37;;
18455;SDS011;9357;49.900;8.208;2022-10-31T04:46:39;13.00;;;7.60;;
18455;SDS011;9357;49.900;8.208;2022-10-31T04:48:12;13.53;;;7.87;;
18455;SDS011;9357;49.900;8.208;2022-10-31T04:49:44;11.23;;;7.43;;
18455;SDS011;9357;49.900;8.208;2022-10-31T04:51:17;12.70;;;7.00;;
18455;SDS011;9357;49.900;8.208;2022-10-31T04:52:51;10.57;;;7.40;;
18455;SDS011;9357;49.900;8.208;2022-10-31T04:54:23;13.37;;;7.80;;
18455;SDS011;9357;49.900;8.208;2022-10-31T04:55:57;14.43;;;7.87;;
18455;SDS011;9357;49.900;8.208;2022-10-31T04:57:30;13.27;;;8.70;;
18455;SDS011;9357;49.900;8.208;2022-10-31T04:59:03;15.03;;;9.90;;
18455;SDS011;9357;49.900;8.208;2022-10-31T05:00:35;15.73;;;10.30;;
18455;SDS011;9357;49.900;8.208;2022-10-31T05:02:07;16.43;;;9.57;;
18455;SDS011;9357;49.900;8.208;2022-10-31T05:03:40;13.50;;;8.10;;
18455;SDS011;9357;49.900;8.208;2022-10-31T05:05:14;12.30;;;8.00;;
18455;SDS011;9357;49.900;8.208;2022-10-31T05:06:47;12.73;;;7.80;;
18455;SDS011;9357;49.900;8.208;2022-10-31T05:08:21;12.67;;;7.63;;
18455;SDS011;9357;49.900;8.208;2022-10-31T05:09:53;11.97;;;7.20;;
18455;SDS011;9357;49.900;8.208;2022-10-31T05:11:26;12.70;;;8.13;;
18455;SDS011;9357;49.900;8.208;2022-10-31T05:12:59;13.90;;;8.67;;
18455;SDS011;9357;49.900;8.208;2022-10-31T05:14:34;17.73;;;10.10;;
18455;SDS011;9357;49.900;8.208;2022-10-31T05:16:07;13.17;;;9.30;;
18455;SDS011;9357;49.900;8.208;2022-10-31T05:17:40;15.30;;;9.40;;
18455;SDS011;9357;49.900;8.208;2022-10-31T05:19:11;13.73;;;9.40;;
18455;SDS011;9357;49.900;8.208;2022-10-31T05:20:44;13.60;;;8.27;;
18455;SDS011;9357;49.900;8.208;2022-10-31T05:22:16;12.20;;;7.67;;
18455;SDS011;9357;49.900;8.208;2022-10-31T05:23:50;10.30;;;7.97;;
18455;SDS011;9357;49.900;8.208;2022-10-31T05:25:23;10.70;;;7.10;;
18455;SDS011;9357;49.900;8.208;2022-10-31T05:26:58;10.33;;;6.93;;
18455;SDS011;9357;49.900;8.208;2022-10-31T05:28:31;9.10;;;7.60;;
18455;SDS011;9357;49.900;8.208;2022-10-31T05:30:04;11.33;;;7.63;;
18455;SDS011;9357;49.900;8.208;2022-10-31T05:31:37;11.87;;;8.03;;
18455;SDS011;9357;49.900;8.208;2022-10-31T05:33:09;15.20;;;8.27;;
18455;SDS011;9357;49.900;8.208;2022-10-31T05:34:42;10.83;;;7.53;;
18455;SDS011;9357;49.900;8.208;2022-10-31T05:36:14;12.40;;;7.13;;
18455;SDS011;9357;49.900;8.208;2022-10-31T05:37:46;9.87;;;7.17;;
18455;SDS011;9357;49.900;8.208;2022-10-31T05:39:20;11.20;;;8.00;;
18455;SDS011;9357;49.900;8.208;2022-10-31T05:40:54;12.77;;;7.73;;
18455;SDS011;9357;49.900;8.208;2022-10-31T05:42:28;13.70;;;7.60;;
18455;SDS011;9357;49.900;8.208;2022-10-31T05:44:01;10.73;;;7.47;;
18455;SDS011;9357;49.900;8.208;2022-10-31T05:45:34;13.07;;;7.90;;
18455;SDS011;9357;49.900;8.208;2022-10-31T05:47:06;11.13;;;7.70;;
18455;SDS011;9357;49.900;8.208;2022-10-31T05:48:38;11.43;;;7.20;;
18455;SDS011;9357;49.900;8.208;2022-10-31T05:50:11;12.20;;;8.30;;
18455;SDS011;9357;49.900;8.208;2022-10-31T05:51:44;14.13;;;9.07;;
18455;SDS011;9357;49.900;8.208;2022-10-31T05:53:15;15.13;;;8.77;;
18455;SDS011;9357;49.900;8.208;2022-10-31T05:54:49;16.80;;;9.20;;
18455;SDS011;9357;49.900;8.208;2022-10-31T05:56:21;15.33;;;8.67;;
18455;SDS011;9357;49.900;8.208;2022-10-31T05:57:54;13.77;;;9.40;;
18455;SDS011;9357;49.900;8.208;2022-10-31T05:59:28;15.27;;;9.23;;
18455;SDS011;9357;49.900;8.208;2022-10-31T06:01:00;15.13;;;9.63;;
18455;SDS011;9357;49.900;8.208;2022-10-31T06:02:33;16.40;;;9.93;;
18455;SDS011;9357;49.900;8.208;2022-10-31T06:04:06;14.33;;;10.43;;
18455;SDS011;9357;49.900;8.208;2022-10-31T06:05:39;17.93;;;10.87;;
18455;SDS011;9357;49.900;8.208;2022-10-31T06:07:12;13.07;;;10.03;;
18455;SDS011;9357;49.900;8.208;2022-10-31T06:08:44;10.83;;;8.90;;
18455;SDS011;9357;49.900;8.208;2022-10-31T06:10:19;18.77;;;9.87;;
18455;SDS011;9357;49.900;8.208;2022-10-31T06:11:52;13.33;;;9.70;;
18455;SDS011;9357;49.900;8.208;2022-10-31T06:13:24;16.93;;;10.57;;
18455;SDS011;9357;49.900;8.208;2022-10-31T06:14:57;13.63;;;9.03;;
18455;SDS011;9357;49.900;8.208;2022-10-31T06:16:30;12.87;;;9.33;;
18455;SDS011;9357;49.900;8.208;2022-10-31T06:18:03;13.57;;;9.30;;
18455;SDS011;9357;49.900;8.208;2022-10-31T06:19:37;11.90;;;7.93;;
18455;SDS011;9357;49.900;8.208;2022-10-31T06:21:09;14.80;;;9.27;;
18455;SDS011;9357;49.900;8.208;2022-10-31T06:22:46;11.27;;;8.27;;
18455;SDS011;9357;49.900;8.208;2022-10-31T06:24:19;14.57;;;8.90;;
18455;SDS011;9357;49.900;8.208;2022-10-31T06:25:53;13.83;;;9.40;;
18455;SDS011;9357;49.900;8.208;2022-10-31T06:27:26;14.37;;;9.90;;
18455;SDS011;9357;49.900;8.208;2022-10-31T06:28:59;15.90;;;10.20;;
18455;SDS011;9357;49.900;8.208;2022-10-31T06:30:34;15.10;;;9.00;;
18455;SDS011;9357;49.900;8.208;2022-10-31T06:32:08;14.67;;;8.40;;
18455;SDS011;9357;49.900;8.208;2022-10-31T06:33:42;10.43;;;8.37;;
18455;SDS011;9357;49.900;8.208;2022-10-31T06:35:15;12.03;;;8.60;;
18455;SDS011;9357;49.900;8.208;2022-10-31T06:36:48;12.53;;;7.67;;
18455;SDS011;9357;49.900;8.208;2022-10-31T06:38:21;11.20;;;8.10;;
18455;SDS011;9357;49.900;8.208;2022-10-31T06:39:54;11.93;;;8.10;;
18455;SDS011;9357;49.900;8.208;2022-10-31T06:41:28;11.03;;;8.10;;
18455;SDS011;9357;49.900;8.208;2022-10-31T06:43:01;9.80;;;8.43;;
18455;SDS011;9357;49.900;8.208;2022-10-31T06:44:34;11.70;;;9.03;;
18455;SDS011;9357;49.900;8.208;2022-10-31T06:46:06;11.90;;;8.93;;
18455;SDS011;9357;49.900;8.208;2022-10-31T06:47:39;11.23;;;8.70;;
18455;SDS011;9357;49.900;8.208;2022-10-31T06:49:32;10.30;;;8.10;;
18455;SDS011;9357;49.900;8.208;2022-10-31T06:51:05;14.03;;;8.40;;
18455;SDS011;9357;49.900;8.208;2022-10-31T06:52:38;13.43;;;8.23;;
18455;SDS011;9357;49.900;8.208;2022-10-31T06:54:10;10.37;;;7.77;;
18455;SDS011;9357;49.900;8.208;2022-10-31T06:55:43;11.50;;;9.07;;
18455;SDS011;9357;49.900;8.208;2022-10-31T06:57:17;15.97;;;8.97;;
18455;SDS011;9357;49.900;8.208;2022-10-31T06:58:50;11.87;;;8.87;;
18455;SDS011;9357;49.900;8.208;2022-10-31T07:00:23;11.70;;;8.60;;
18455;SDS011;9357;49.900;8.208;2022-10-31T07:01:57;12.07;;;8.73;;
18455;SDS011;9357;49.900;8.208;2022-10-31T07:03:30;12.57;;;9.03;;
18455;SDS011;9357;49.900;8.208;2022-10-31T07:05:03;19.53;;;10.67;;
18455;SDS011;9357;49.900;8.208;2022-10-31T07:06:36;13.40;;;9.70;;
18455;SDS011;9357;49.900;8.208;2022-10-31T07:08:10;13.10;;;9.30;;
18455;SDS011;9357;49.900;8.208;2022-10-31T07:09:44;11.77;;;7.90;;
18455;SDS011;9357;49.900;8.208;2022-10-31T07:11:17;13.17;;;8.83;;
18455;SDS011;9357;49.900;8.208;2022-10-31T07:12:54;10.73;;;8.27;;
18455;SDS011;9357;49.900;8.208;2022-10-31T07:14:28;11.13;;;7.70;;
18455;SDS011;9357;49.900;8.208;2022-10-31T07:16:02;11.20;;;8.70;;
18455;SDS011;9357;49.900;8.208;2022-10-31T07:17:37;12.07;;;8.27;;
18455;SDS011;9357;49.900;8.208;2022-10-31T07:19:10;11.60;;;7.60;;
18455;SDS011;9357;49.900;8.208;2022-10-31T07:20:43;12.07;;;7.60;;
18455;SDS011;9357;49.900;8.208;2022-10-31T07:22:15;12.17;;;8.43;;
18455;SDS011;9357;49.900;8.208;2022-10-31T07:23:48;9.40;;;7.67;;
18455;SDS011;9357;49.900;8.208;2022-10-31T07:25:21;11.97;;;8.40;;
18455;SDS011;9357;49.900;8.208;2022-10-31T07:26:54;12.63;;;8.50;;
18455;SDS011;9357;49.900;8.208;2022-10-31T07:28:28;10.20;;;7.47;;
18455;SDS011;9357;49.900;8.208;2022-10-31T07:30:01;10.27;;;7.90;;
18455;SDS011;9357;49.900;8.208;2022-10-31T07:31:33;13.37;;;7.73;;
18455;SDS011;9357;49.900;8.208;2022-10-31T07:33:06;14.63;;;8.87;;
18455;SDS011;9357;49.900;8.208;2022-10-31T07:34:40;9.53;;;7.23;;
18455;SDS011;9357;49.900;8.208;2022-10-31T07:36:17;10.47;;;7.07;;
18455;SDS011;9357;49.900;8.208;2022-10-31T07:37:50;12.43;;;7.47;;
18455;SDS011;9357;49.900;8.208;2022-10-31T07:39:23;10.93;;;7.40;;
18455;SDS011;9357;49.900;8.208;2022-10-31T07:40:56;10.17;;;7.40;;
18455;SDS011;9357;49.900;8.208;2022-10-31T07:42:29;8.00;;;7.07;;
18455;SDS011;9357;49.900;8.208;2022-10-31T07:44:07;9.27;;;7.10;;
18455;SDS011;9357;49.900;8.208;2022-10-31T07:45:40;12.27;;;6.80;;
18455;SDS011;9357;49.900;8.208;2022-10-31T07:47:13;8.73;;;7.57;;
18455;SDS011;9357;49.900;8.208;2022-10-31T07:48:45;8.50;;;6.90;;
18455;SDS011;9357;49.900;8.208;2022-10-31T07:50:19;10.57;;;7.47;;
18455;SDS011;9357;49.900;8.208;2022-10-31T07:51:52;8.30;;;6.30;;
18455;SDS011;9357;49.900;8.208;2022-10-31T07:53:25;6.77;;;6.00;;
18455;SDS011;9357;49.900;8.208;2022-10-31T07:54:58;9.00;;;5.80;;
18455;SDS011;9357;49.900;8.208;2022-10-31T07:56:31;7.50;;;5.53;;
18455;SDS011;9357;49.900;8.208;2022-10-31T07:58:04;11.40;;;5.90;;
18455;SDS011;9357;49.900;8.208;2022-10-31T07:59:39;8.07;;;5.70;;
18455;SDS011;9357;49.900;8.208;2022-10-31T08:01:12;7.53;;;6.30;;
18455;SDS011;9357;49.900;8.208;2022-10-31T08:02:45;8.10;;;6.27;;
18455;SDS011;9357;49.900;8.208;2022-10-31T08:04:18;8.13;;;6.23;;
18455;SDS011;9357;49.900;8.208;2022-10-31T08:05:50;8.43;;;6.33;;
18455;SDS011;9357;49.900;8.208;2022-10-31T08:07:23;8.60;;;6.77;;
18455;SDS011;9357;49.900;8.208;2022-10-31T08:08:56;10.47;;;6.50;;
18455;SDS011;9357;49.900;8.208;2022-10-31T08:10:29;9.07;;;7.57;;
18455;SDS011;9357;49.900;8.208;2022-10-31T08:12:02;11.37;;;6.83;;
18455;SDS011;9357;49.900;8.208;2022-10-31T08:13:35;6.97;;;6.27;;
18455;SDS011;9357;49.900;8.208;2022-10-31T08:15:09;9.63;;;6.47;;
18455;SDS011;9357;49.900;8.208;2022-10-31T08:16:42;11.13;;;7.57;;
18455;SDS011;9357;49.900;8.208;2022-10-31T08:18:15;9.27;;;6.53;;
18455;SDS011;9357;49.900;8.208;2022-10-31T08:19:48;8.23;;;6.37;;
18455;SDS011;9357;49.900;8.208;2022-10-31T08:21:21;9.00;;;7.10;;
18455;SDS011;9357;49.900;8.208;2022-10-31T08:22:54;7.33;;;6.63;;
18455;SDS011;9357;49.900;8.208;2022-10-31T08:24:28;8.17;;;7.20;;
18455;SDS011;9357;49.900;8.208;2022-10-31T08:26:00;9.10;;;6.40;;
18455;SDS011;9357;49.900;8.208;2022-10-31T08:27:33;11.57;;;6.97;;
18455;SDS011;9357;49.900;8.208;2022-10-31T08:29:06;10.63;;;7.53;;
18455;SDS011;9357;49.900;8.208;2022-10-31T08:30:40;8.80;;;6.83;;
18455;SDS011;9357;49.900;8.208;2022-10-31T08:32:13;9.23;;;6.87;;
18455;SDS011;9357;49.900;8.208;2022-10-31T08:33:46;10.00;;;6.67;;
18455;SDS011;9357;49.900;8.208;2022-10-31T08:35:19;8.60;;;6.33;;
18455;SDS011;9357;49.900;8.208;2022-10-31T08:36:51;8.60;;;7.43;;
18455;SDS011;9357;49.900;8.208;2022-10-31T08:38:24;8.63;;;7.53;;
18455;SDS011;9357;49.900;8.208;2022-10-31T08:39:57;13.50;;;8.10;;
18455;SDS011;9357;49.900;8.208;2022-10-31T08:41:29;9.33;;;8.17;;
18455;SDS011;9357;49.900;8.208;2022-10-31T08:43:03;9.67;;;7.80;;
18455;SDS011;9357;49.900;8.208;2022-10-31T08:44:36;12.30;;;7.90;;
18455;SDS011;9357;49.900;8.208;2022-10-31T08:46:11;11.60;;;7.90;;
18455;SDS011;9357;49.900;8.208;2022-10-31T08:47:44;11.20;;;8.30;;
18455;SDS011;9357;49.900;8.208;2022-10-31T08:49:16;12.60;;;8.40;;
18455;SDS011;9357;49.900;8.208;2022-10-31T08:50:49;11.17;;;8.40;;
18455;SDS011;9357;49.900;8.208;2022-10-31T08:52:23;10.83;;;8.43;;
18455;SDS011;9357;49.900;8.208;2022-10-31T08:54:15;13.63;;;9.43;;
18455;SDS011;9357;49.900;8.208;2022-10-31T08:55:48;16.03;;;9.57;;
18455;SDS011;9357;49.900;8.208;2022-10-31T08:57:21;15.43;;;9.90;;
18455;SDS011;9357;49.900;8.208;2022-10-31T08:58:54;13.23;;;9.30;;
18455;SDS011;9357;49.900;8.208;2022-10-31T09:00:26;15.83;;;10.63;;
18455;SDS011;9357;49.900;8.208;2022-10-31T09:02:00;15.60;;;11.43;;
18455;SDS011;9357;49.900;8.208;2022-10-31T09:03:33;16.17;;;10.53;;
18455;SDS011;9357;49.900;8.208;2022-10-31T09:05:06;16.30;;;10.87;;
18455;SDS011;9357;49.900;8.208;2022-10-31T09:06:40;12.23;;;9.87;;
18455;SDS011;9357;49.900;8.208;2022-10-31T09:08:32;12.83;;;9.33;;
18455;SDS011;9357;49.900;8.208;2022-10-31T09:10:05;13.50;;;9.77;;
18455;SDS011;9357;49.900;8.208;2022-10-31T09:11:37;14.63;;;9.17;;
18455;SDS011;9357;49.900;8.208;2022-10-31T09:13:10;13.17;;;9.67;;
18455;SDS011;9357;49.900;8.208;2022-10-31T09:14:44;13.70;;;9.70;;
18455;SDS011;9357;49.900;8.208;2022-10-31T09:16:17;13.23;;;9.53;;
18455;SDS011;9357;49.900;8.208;2022-10-31T09:17:51;17.10;;;10.30;;
18455;SDS011;9357;49.900;8.208;2022-10-31T09:19:24;13.17;;;10.30;;
18455;SDS011;9357;49.900;8.208;2022-10-31T09:20:57;11.53;;;9.57;;
18455;SDS011;9357;49.900;8.208;2022-10-31T09:22:31;15.70;;;9.57;;
18455;SDS011;9357;49.900;8.208;2022-10-31T09:24:04;11.73;;;9.90;;
18455;SDS011;9357;49.900;8.208;2022-10-31T09:25:37;14.43;;;9.87;;
18455;SDS011;9357;49.900;8.208;2022-10-31T09:27:11;15.10;;;10.80;;
18455;SDS011;9357;49.900;8.208;2022-10-31T09:28:43;13.63;;;10.63;;
18455;SDS011;9357;49.900;8.208;2022-10-31T09:30:17;12.90;;;10.60;;
18455;SDS011;9357;49.900;8.208;2022-10-31T09:31:50;14.47;;;10.50;;
18455;SDS011;9357;49.900;8.208;2022-10-31T09:33:24;13.13;;;10.30;;